sensor_id;sensor_type;location;lat;lon;timestamp;P1;durP1;ratioP1;P2;durP2;ratioP2
26261;SDS011;13988;52.446;13.280;2024-02-26T00:01:00;6.32;;;3.70;;
26261;SDS011;13988;52.446;13.280;2024-02-26T00:03:27;4.85;;;3.47;;
26261;SDS011;13988;52.446;13.280;2024-02-26T00:05:52;4.70;;;2.90;;
26261;SDS011;13988;52.446;13.280;2024-02-26T00:08:18;5.05;;;3.22;;
26261;SDS011;13988;52.446;13.280;2024-02-26T00:10:43;11.13;;;4.18;;
26261;SDS011;13988;52.446;13.280;2024-02-26T00:13:09;7.03;;;3.65;;
26261;SDS011;13988;52.446;13.280;2024-02-26T00:15:35;7.70;;;3.83;;
26261;SDS011;13988;52.446;13.280;2024-02-26T00:18:01;4.80;;;3.00;;
26261;SDS011;13988;52.446;13.280;2024-02-26T00:20:26;7.43;;;3.50;;
26261;SDS011;13988;52.446;13.280;2024-02-26T00:22:52;6.20;;;3.65;;
26261;SDS011;13988;52.446;13.280;2024-02-26T00:25:18;7.18;;;3.35;;
26261;SDS011;13988;52.446;13.280;2024-02-26T00:27:43;14.48;;;4.13;;
26261;SDS011;13988;52.446;13.280;2024-02-26T00:30:09;7.45;;;3.55;;
26261;SDS011;13988;52.446;13.280;2024-02-26T00:32:35;6.72;;;2.80;;
26261;SDS011;13988;52.446;13.280;2024-02-26T00:35:01;6.43;;;3.40;;
26261;SDS011;13988;52.446;13.280;2024-02-26T00:37:27;9.07;;;3.60;;
26261;SDS011;13988;52.446;13.280;2024-02-26T00:39:52;7.20;;;3.42;;
26261;SDS011;13988;52.446;13.280;2024-02-26T00:42:19;7.65;;;3.65;;
26261;SDS011;13988;52.446;13.280;2024-02-26T00:44:44;6.28;;;3.00;;
26261;SDS011;13988;52.446;13.280;2024-02-26T00:47:10;7.97;;;3.90;;
26261;SDS011;13988;52.446;13.280;2024-02-26T00:49:36;7.75;;;3.17;;
26261;SDS011;13988;52.446;13.280;2024-02-26T00:52:02;8.18;;;3.97;;
26261;SDS011;13988;52.446;13.280;2024-02-26T00:54:28;7.78;;;3.13;;
26261;SDS011;13988;52.446;13.280;2024-02-26T00:56:54;10.32;;;3.47;;
26261;SDS011;13988;52.446;13.280;2024-02-26T00:59:19;4.95;;;2.80;;
26261;SDS011;13988;52.446;13.280;2024-02-26T01:01:45;5.75;;;3.30;;
26261;SDS011;13988;52.446;13.280;2024-02-26T01:04:10;5.68;;;3.90;;
26261;SDS011;13988;52.446;13.280;2024-02-26T01:06:37;13.88;;;4.00;;
26261;SDS011;13988;52.446;13.280;2024-02-26T01:09:03;4.95;;;3.15;;
26261;SDS011;13988;52.446;13.280;2024-02-26T01:11:29;10.90;;;3.55;;
26261;SDS011;13988;52.446;13.280;2024-02-26T01:13:54;4.10;;;3.15;;
26261;SDS011;13988;52.446;13.280;2024-02-26T01:16:22;7.20;;;3.85;;
26261;SDS011;13988;52.446;13.280;2024-02-26T01:18:48;8.35;;;4.15;;
26261;SDS011;13988;52.446;13.280;2024-02-26T01:21:14;4.55;;;3.47;;
26261;SDS011;13988;52.446;13.280;2024-02-26T01:23:39;7.15;;;3.83;;
26261;SDS011;13988;52.446;13.280;2024-02-26T01:26:05;9.65;;;3.70;;
26261;SDS011;13988;52.446;13.280;2024-02-26T01:28:31;5.50;;;3.50;;
26261;SDS011;13988;52.446;13.280;2024-02-26T01:30:56;7.20;;;4.00;;
26261;SDS011;13988;52.446;13.280;2024-02-26T01:33:23;8.55;;;3.95;;
26261;SDS011;13988;52.446;13.280;2024-02-26T01:35:50;5.72;;;3.92;;
26261;SDS011;13988;52.446;13.280;2024-02-26T01:38:16;6.13;;;3.75;;
26261;SDS011;13988;52.446;13.280;2024-02-26T01:40:41;8.10;;;3.83;;
26261;SDS011;13988;52.446;13.280;2024-02-26T01:43:07;5.75;;;3.40;;
26261;SDS011;13988;52.446;13.280;2024-02-26T01:45:32;6.78;;;3.58;;
26261;SDS011;13988;52.446;13.280;2024-02-26T01:47:58;9.45;;;4.28;;
26261;SDS011;13988;52.446;13.280;2024-02-26T01:50:24;6.20;;;3.50;;
26261;SDS011;13988;52.446;13.280;2024-02-26T01:52:50;7.20;;;4.55;;
26261;SDS011;13988;52.446;13.280;2024-02-26T01:55:19;6.97;;;3.35;;
26261;SDS011;13988;52.446;13.280;2024-02-26T01:57:45;5.93;;;4.20;;
26261;SDS011;13988;52.446;13.280;2024-02-26T02:00:14;6.97;;;3.15;;
26261;SDS011;13988;52.446;13.280;2024-02-26T02:02:41;8.68;;;3.30;;
26261;SDS011;13988;52.446;13.280;2024-02-26T02:05:09;6.32;;;3.80;;
26261;SDS011;13988;52.446;13.280;2024-02-26T02:07:36;6.18;;;3.78;;
26261;SDS011;13988;52.446;13.280;2024-02-26T02:10:02;6.75;;;4.10;;
26261;SDS011;13988;52.446;13.280;2024-02-26T02:12:28;5.72;;;3.60;;
26261;SDS011;13988;52.446;13.280;2024-02-26T02:14:54;6.95;;;3.78;;
26261;SDS011;13988;52.446;13.280;2024-02-26T02:17:20;5.93;;;3.83;;
26261;SDS011;13988;52.446;13.280;2024-02-26T02:19:46;7.07;;;3.85;;
26261;SDS011;13988;52.446;13.280;2024-02-26T02:22:11;8.73;;;4.60;;
26261;SDS011;13988;52.446;13.280;2024-02-26T02:24:37;8.93;;;4.07;;
26261;SDS011;13988;52.446;13.280;2024-02-26T02:27:03;4.38;;;3.53;;
26261;SDS011;13988;52.446;13.280;2024-02-26T02:29:29;5.63;;;4.05;;
26261;SDS011;13988;52.446;13.280;2024-02-26T02:31:55;5.57;;;3.58;;
26261;SDS011;13988;52.446;13.280;2024-02-26T02:34:21;7.05;;;4.13;;
26261;SDS011;13988;52.446;13.280;2024-02-26T02:36:53;11.20;;;3.83;;
26261;SDS011;13988;52.446;13.280;2024-02-26T02:39:20;5.80;;;3.45;;
26261;SDS011;13988;52.446;13.280;2024-02-26T02:41:46;9.45;;;4.07;;
26261;SDS011;13988;52.446;13.280;2024-02-26T02:44:11;5.43;;;3.45;;
26261;SDS011;13988;52.446;13.280;2024-02-26T02:46:37;4.00;;;3.33;;
26261;SDS011;13988;52.446;13.280;2024-02-26T02:49:04;9.85;;;3.42;;
26261;SDS011;13988;52.446;13.280;2024-02-26T02:51:32;4.72;;;3.30;;
26261;SDS011;13988;52.446;13.280;2024-02-26T02:53:58;8.00;;;4.15;;
26261;SDS011;13988;52.446;13.280;2024-02-26T02:56:24;7.22;;;4.20;;
26261;SDS011;13988;52.446;13.280;2024-02-26T02:58:49;5.45;;;3.28;;
26261;SDS011;13988;52.446;13.280;2024-02-26T03:01:15;4.95;;;3.55;;
26261;SDS011;13988;52.446;13.280;2024-02-26T03:03:41;10.27;;;4.15;;
26261;SDS011;13988;52.446;13.280;2024-02-26T03:06:06;6.65;;;3.63;;
26261;SDS011;13988;52.446;13.280;2024-02-26T03:08:32;4.93;;;3.28;;
26261;SDS011;13988;52.446;13.280;2024-02-26T03:11:01;9.60;;;3.88;;
26261;SDS011;13988;52.446;13.280;2024-02-26T03:13:26;8.80;;;3.95;;
26261;SDS011;13988;52.446;13.280;2024-02-26T03:15:52;8.60;;;4.65;;
26261;SDS011;13988;52.446;13.280;2024-02-26T03:18:17;7.80;;;4.82;;
26261;SDS011;13988;52.446;13.280;2024-02-26T03:20:43;12.95;;;5.32;;
26261;SDS011;13988;52.446;13.280;2024-02-26T03:23:09;7.28;;;4.30;;
26261;SDS011;13988;52.446;13.280;2024-02-26T03:25:37;9.32;;;3.88;;
26261;SDS011;13988;52.446;13.280;2024-02-26T03:28:03;12.77;;;3.80;;
26261;SDS011;13988;52.446;13.280;2024-02-26T03:30:29;8.85;;;4.60;;
26261;SDS011;13988;52.446;13.280;2024-02-26T03:32:55;7.35;;;3.72;;
26261;SDS011;13988;52.446;13.280;2024-02-26T03:35:20;10.25;;;3.95;;
26261;SDS011;13988;52.446;13.280;2024-02-26T03:37:46;6.95;;;4.80;;
26261;SDS011;13988;52.446;13.280;2024-02-26T03:40:12;8.50;;;4.30;;
26261;SDS011;13988;52.446;13.280;2024-02-26T03:42:39;7.35;;;3.90;;
26261;SDS011;13988;52.446;13.280;2024-02-26T03:45:05;8.13;;;4.60;;
26261;SDS011;13988;52.446;13.280;2024-02-26T03:47:31;10.60;;;4.40;;
26261;SDS011;13988;52.446;13.280;2024-02-26T03:49:57;5.50;;;4.05;;
26261;SDS011;13988;52.446;13.280;2024-02-26T03:52:24;6.05;;;4.20;;
26261;SDS011;13988;52.446;13.280;2024-02-26T03:54:49;11.85;;;4.82;;
26261;SDS011;13988;52.446;13.280;2024-02-26T03:57:15;7.53;;;4.32;;
26261;SDS011;13988;52.446;13.280;2024-02-26T03:59:41;8.43;;;4.30;;
26261;SDS011;13988;52.446;13.280;2024-02-26T04:02:06;4.78;;;3.90;;
26261;SDS011;13988;52.446;13.280;2024-02-26T04:04:35;5.25;;;3.95;;
26261;SDS011;13988;52.446;13.280;2024-02-26T04:07:00;7.40;;;4.50;;
26261;SDS011;13988;52.446;13.280;2024-02-26T04:09:26;7.90;;;3.90;;
26261;SDS011;13988;52.446;13.280;2024-02-26T04:11:51;6.75;;;4.05;;
26261;SDS011;13988;52.446;13.280;2024-02-26T04:14:17;5.80;;;4.18;;
26261;SDS011;13988;52.446;13.280;2024-02-26T04:16:43;8.55;;;4.10;;
26261;SDS011;13988;52.446;13.280;2024-02-26T04:19:08;7.18;;;4.50;;
26261;SDS011;13988;52.446;13.280;2024-02-26T04:21:34;7.53;;;3.97;;
26261;SDS011;13988;52.446;13.280;2024-02-26T04:24:01;6.68;;;4.40;;
26261;SDS011;13988;52.446;13.280;2024-02-26T04:26:27;6.25;;;4.43;;
26261;SDS011;13988;52.446;13.280;2024-02-26T04:28:54;7.30;;;4.20;;
26261;SDS011;13988;52.446;13.280;2024-02-26T04:31:19;8.65;;;3.35;;
26261;SDS011;13988;52.446;13.280;2024-02-26T04:33:45;7.43;;;4.20;;
26261;SDS011;13988;52.446;13.280;2024-02-26T04:36:14;9.13;;;4.60;;
26261;SDS011;13988;52.446;13.280;2024-02-26T04:38:45;8.70;;;4.05;;
26261;SDS011;13988;52.446;13.280;2024-02-26T04:41:11;6.47;;;4.32;;
26261;SDS011;13988;52.446;13.280;2024-02-26T04:43:37;5.50;;;3.95;;
26261;SDS011;13988;52.446;13.280;2024-02-26T04:46:09;7.22;;;4.43;;
26261;SDS011;13988;52.446;13.280;2024-02-26T04:48:35;5.10;;;4.28;;
26261;SDS011;13988;52.446;13.280;2024-02-26T04:51:01;10.63;;;4.40;;
26261;SDS011;13988;52.446;13.280;2024-02-26T04:53:28;10.15;;;4.50;;
26261;SDS011;13988;52.446;13.280;2024-02-26T04:55:54;6.78;;;3.72;;
26261;SDS011;13988;52.446;13.280;2024-02-26T04:58:20;8.63;;;4.95;;
26261;SDS011;13988;52.446;13.280;2024-02-26T05:00:45;5.78;;;4.15;;
26261;SDS011;13988;52.446;13.280;2024-02-26T05:03:11;10.45;;;4.10;;
26261;SDS011;13988;52.446;13.280;2024-02-26T05:05:40;10.65;;;3.83;;
26261;SDS011;13988;52.446;13.280;2024-02-26T05:08:07;8.35;;;4.22;;
26261;SDS011;13988;52.446;13.280;2024-02-26T05:10:33;7.18;;;3.38;;
26261;SDS011;13988;52.446;13.280;2024-02-26T05:12:59;6.50;;;4.22;;
26261;SDS011;13988;52.446;13.280;2024-02-26T05:15:25;9.60;;;4.20;;
26261;SDS011;13988;52.446;13.280;2024-02-26T05:17:50;5.38;;;3.55;;
26261;SDS011;13988;52.446;13.280;2024-02-26T05:20:17;7.95;;;4.63;;
26261;SDS011;13988;52.446;13.280;2024-02-26T05:22:43;7.15;;;4.95;;
26261;SDS011;13988;52.446;13.280;2024-02-26T05:25:09;7.38;;;3.83;;
26261;SDS011;13988;52.446;13.280;2024-02-26T05:27:34;6.13;;;3.88;;
26261;SDS011;13988;52.446;13.280;2024-02-26T05:30:00;7.60;;;3.92;;
26261;SDS011;13988;52.446;13.280;2024-02-26T05:32:26;10.60;;;4.20;;
26261;SDS011;13988;52.446;13.280;2024-02-26T05:34:51;9.73;;;4.35;;
26261;SDS011;13988;52.446;13.280;2024-02-26T05:37:17;7.28;;;3.90;;
26261;SDS011;13988;52.446;13.280;2024-02-26T05:39:42;5.95;;;3.47;;
26261;SDS011;13988;52.446;13.280;2024-02-26T05:42:08;6.82;;;3.35;;
26261;SDS011;13988;52.446;13.280;2024-02-26T05:44:34;7.50;;;4.18;;
26261;SDS011;13988;52.446;13.280;2024-02-26T05:46:59;6.57;;;4.28;;
26261;SDS011;13988;52.446;13.280;2024-02-26T05:49:25;7.40;;;4.00;;
26261;SDS011;13988;52.446;13.280;2024-02-26T05:51:51;7.32;;;4.40;;
26261;SDS011;13988;52.446;13.280;2024-02-26T05:54:16;6.45;;;4.03;;
26261;SDS011;13988;52.446;13.280;2024-02-26T05:56:42;7.25;;;4.07;;
26261;SDS011;13988;52.446;13.280;2024-02-26T05:59:07;6.95;;;3.97;;
26261;SDS011;13988;52.446;13.280;2024-02-26T06:01:33;8.45;;;3.80;;
26261;SDS011;13988;52.446;13.280;2024-02-26T06:03:59;6.90;;;4.53;;
26261;SDS011;13988;52.446;13.280;2024-02-26T06:06:24;7.43;;;3.70;;
26261;SDS011;13988;52.446;13.280;2024-02-26T06:08:50;6.15;;;4.20;;
26261;SDS011;13988;52.446;13.280;2024-02-26T06:11:16;10.25;;;4.47;;
26261;SDS011;13988;52.446;13.280;2024-02-26T06:13:41;7.03;;;3.65;;
26261;SDS011;13988;52.446;13.280;2024-02-26T06:16:10;6.55;;;4.00;;
26261;SDS011;13988;52.446;13.280;2024-02-26T06:18:36;7.50;;;4.15;;
26261;SDS011;13988;52.446;13.280;2024-02-26T06:21:01;6.70;;;3.88;;
26261;SDS011;13988;52.446;13.280;2024-02-26T06:23:27;8.60;;;5.65;;
26261;SDS011;13988;52.446;13.280;2024-02-26T06:25:53;6.80;;;3.72;;
26261;SDS011;13988;52.446;13.280;2024-02-26T06:28:19;7.57;;;4.63;;
26261;SDS011;13988;52.446;13.280;2024-02-26T06:30:44;7.53;;;4.93;;
26261;SDS011;13988;52.446;13.280;2024-02-26T06:33:11;16.20;;;4.68;;
26261;SDS011;13988;52.446;13.280;2024-02-26T06:35:37;6.82;;;3.75;;
26261;SDS011;13988;52.446;13.280;2024-02-26T06:38:03;7.60;;;4.43;;
26261;SDS011;13988;52.446;13.280;2024-02-26T06:40:29;6.72;;;4.57;;
26261;SDS011;13988;52.446;13.280;2024-02-26T06:42:55;7.68;;;4.70;;
26261;SDS011;13988;52.446;13.280;2024-02-26T06:45:21;8.18;;;5.22;;
26261;SDS011;13988;52.446;13.280;2024-02-26T06:47:47;11.05;;;5.00;;
26261;SDS011;13988;52.446;13.280;2024-02-26T06:50:12;8.68;;;5.00;;
26261;SDS011;13988;52.446;13.280;2024-02-26T06:52:38;11.15;;;5.00;;
26261;SDS011;13988;52.446;13.280;2024-02-26T06:55:04;11.57;;;5.75;;
26261;SDS011;13988;52.446;13.280;2024-02-26T06:57:33;11.18;;;6.13;;
26261;SDS011;13988;52.446;13.280;2024-02-26T06:59:58;13.57;;;6.68;;
26261;SDS011;13988;52.446;13.280;2024-02-26T07:02:24;17.42;;;6.90;;
26261;SDS011;13988;52.446;13.280;2024-02-26T07:04:50;9.82;;;5.72;;
26261;SDS011;13988;52.446;13.280;2024-02-26T07:07:15;15.98;;;7.55;;
26261;SDS011;13988;52.446;13.280;2024-02-26T07:09:43;17.52;;;7.88;;
26261;SDS011;13988;52.446;13.280;2024-02-26T07:12:09;11.85;;;6.75;;
26261;SDS011;13988;52.446;13.280;2024-02-26T07:14:35;15.60;;;8.00;;
26261;SDS011;13988;52.446;13.280;2024-02-26T07:17:02;14.90;;;8.00;;
26261;SDS011;13988;52.446;13.280;2024-02-26T07:19:28;15.98;;;7.75;;
26261;SDS011;13988;52.446;13.280;2024-02-26T07:21:54;23.25;;;7.30;;
26261;SDS011;13988;52.446;13.280;2024-02-26T07:24:20;17.77;;;8.63;;
26261;SDS011;13988;52.446;13.280;2024-02-26T07:26:46;14.48;;;8.05;;
26261;SDS011;13988;52.446;13.280;2024-02-26T07:29:11;19.10;;;8.30;;
26261;SDS011;13988;52.446;13.280;2024-02-26T07:31:37;14.57;;;7.95;;
26261;SDS011;13988;52.446;13.280;2024-02-26T07:34:03;17.02;;;8.38;;
26261;SDS011;13988;52.446;13.280;2024-02-26T07:36:28;18.65;;;8.70;;
26261;SDS011;13988;52.446;13.280;2024-02-26T07:38:54;14.18;;;7.53;;
26261;SDS011;13988;52.446;13.280;2024-02-26T07:41:20;14.20;;;7.35;;
26261;SDS011;13988;52.446;13.280;2024-02-26T07:43:46;22.88;;;8.73;;
26261;SDS011;13988;52.446;13.280;2024-02-26T07:46:11;15.82;;;10.23;;
26261;SDS011;13988;52.446;13.280;2024-02-26T07:48:37;14.77;;;8.80;;
26261;SDS011;13988;52.446;13.280;2024-02-26T07:51:03;18.70;;;8.38;;
26261;SDS011;13988;52.446;13.280;2024-02-26T07:53:29;28.63;;;8.73;;
26261;SDS011;13988;52.446;13.280;2024-02-26T07:55:56;24.65;;;9.45;;
26261;SDS011;13988;52.446;13.280;2024-02-26T07:58:22;16.75;;;8.82;;
26261;SDS011;13988;52.446;13.280;2024-02-26T08:00:49;25.50;;;9.48;;
26261;SDS011;13988;52.446;13.280;2024-02-26T08:03:14;16.23;;;9.52;;
26261;SDS011;13988;52.446;13.280;2024-02-26T08:05:41;14.88;;;10.05;;
26261;SDS011;13988;52.446;13.280;2024-02-26T08:08:08;16.23;;;10.32;;
26261;SDS011;13988;52.446;13.280;2024-02-26T08:10:34;15.82;;;8.85;;
26261;SDS011;13988;52.446;13.280;2024-02-26T08:12:59;19.70;;;10.00;;
26261;SDS011;13988;52.446;13.280;2024-02-26T08:15:33;15.93;;;6.53;;
26261;SDS011;13988;52.446;13.280;2024-02-26T08:18:00;15.82;;;8.65;;
26261;SDS011;13988;52.446;13.280;2024-02-26T08:20:29;20.67;;;9.60;;
26261;SDS011;13988;52.446;13.280;2024-02-26T08:22:56;16.23;;;9.13;;
26261;SDS011;13988;52.446;13.280;2024-02-26T08:25:22;19.65;;;10.85;;
26261;SDS011;13988;52.446;13.280;2024-02-26T08:27:48;23.48;;;10.20;;
26261;SDS011;13988;52.446;13.280;2024-02-26T08:30:15;14.82;;;8.20;;
26261;SDS011;13988;52.446;13.280;2024-02-26T08:32:45;16.83;;;9.27;;
26261;SDS011;13988;52.446;13.280;2024-02-26T08:35:11;16.55;;;8.10;;
26261;SDS011;13988;52.446;13.280;2024-02-26T08:37:36;15.27;;;9.10;;
26261;SDS011;13988;52.446;13.280;2024-02-26T08:40:02;15.45;;;9.85;;
26261;SDS011;13988;52.446;13.280;2024-02-26T08:42:31;17.35;;;9.20;;
26261;SDS011;13988;52.446;13.280;2024-02-26T08:44:57;17.20;;;8.73;;
26261;SDS011;13988;52.446;13.280;2024-02-26T08:47:25;19.65;;;9.57;;
26261;SDS011;13988;52.446;13.280;2024-02-26T08:49:51;21.90;;;9.55;;
26261;SDS011;13988;52.446;13.280;2024-02-26T08:52:16;16.13;;;9.25;;
26261;SDS011;13988;52.446;13.280;2024-02-26T08:54:42;20.15;;;9.57;;
26261;SDS011;13988;52.446;13.280;2024-02-26T08:57:08;15.82;;;8.98;;
26261;SDS011;13988;52.446;13.280;2024-02-26T08:59:33;13.93;;;8.05;;
26261;SDS011;13988;52.446;13.280;2024-02-26T09:01:59;18.60;;;10.13;;
26261;SDS011;13988;52.446;13.280;2024-02-26T09:04:24;20.35;;;9.65;;
26261;SDS011;13988;52.446;13.280;2024-02-26T09:06:51;24.27;;;10.35;;
26261;SDS011;13988;52.446;13.280;2024-02-26T09:09:17;20.90;;;9.10;;
26261;SDS011;13988;52.446;13.280;2024-02-26T09:11:42;18.85;;;10.70;;
26261;SDS011;13988;52.446;13.280;2024-02-26T09:14:08;15.57;;;8.35;;
26261;SDS011;13988;52.446;13.280;2024-02-26T09:16:34;18.02;;;9.73;;
26261;SDS011;13988;52.446;13.280;2024-02-26T09:18:59;17.60;;;9.15;;
26261;SDS011;13988;52.446;13.280;2024-02-26T09:21:25;17.92;;;9.70;;
26261;SDS011;13988;52.446;13.280;2024-02-26T09:23:51;12.23;;;7.55;;
26261;SDS011;13988;52.446;13.280;2024-02-26T09:26:17;16.83;;;8.80;;
26261;SDS011;13988;52.446;13.280;2024-02-26T09:28:43;15.63;;;7.93;;
26261;SDS011;13988;52.446;13.280;2024-02-26T09:31:09;13.52;;;8.27;;
26261;SDS011;13988;52.446;13.280;2024-02-26T09:33:35;15.10;;;8.65;;
26261;SDS011;13988;52.446;13.280;2024-02-26T09:36:00;13.63;;;8.90;;
26261;SDS011;13988;52.446;13.280;2024-02-26T09:38:26;14.57;;;7.70;;
26261;SDS011;13988;52.446;13.280;2024-02-26T09:40:53;15.23;;;8.68;;
26261;SDS011;13988;52.446;13.280;2024-02-26T09:43:21;13.52;;;8.68;;
26261;SDS011;13988;52.446;13.280;2024-02-26T09:45:50;18.52;;;9.70;;
26261;SDS011;13988;52.446;13.280;2024-02-26T09:48:18;14.25;;;8.77;;
26261;SDS011;13988;52.446;13.280;2024-02-26T09:50:44;16.95;;;7.80;;
26261;SDS011;13988;52.446;13.280;2024-02-26T09:53:11;15.75;;;8.75;;
26261;SDS011;13988;52.446;13.280;2024-02-26T09:55:39;13.73;;;7.35;;
26261;SDS011;13988;52.446;13.280;2024-02-26T09:58:06;19.85;;;10.63;;
26261;SDS011;13988;52.446;13.280;2024-02-26T10:00:32;17.33;;;8.70;;
26261;SDS011;13988;52.446;13.280;2024-02-26T10:03:03;21.33;;;8.30;;
26261;SDS011;13988;52.446;13.280;2024-02-26T10:05:30;13.52;;;8.45;;
26261;SDS011;13988;52.446;13.280;2024-02-26T10:07:58;15.23;;;9.13;;
26261;SDS011;13988;52.446;13.280;2024-02-26T10:10:27;11.63;;;7.47;;
26261;SDS011;13988;52.446;13.280;2024-02-26T10:12:54;14.27;;;8.68;;
26261;SDS011;13988;52.446;13.280;2024-02-26T10:15:20;19.55;;;8.68;;
26261;SDS011;13988;52.446;13.280;2024-02-26T10:17:46;13.98;;;9.32;;
26261;SDS011;13988;52.446;13.280;2024-02-26T10:20:15;17.20;;;7.72;;
26261;SDS011;13988;52.446;13.280;2024-02-26T10:22:48;18.40;;;8.18;;
26261;SDS011;13988;52.446;13.280;2024-02-26T10:25:14;16.17;;;7.70;;
26261;SDS011;13988;52.446;13.280;2024-02-26T10:27:40;11.85;;;7.60;;
26261;SDS011;13988;52.446;13.280;2024-02-26T10:30:19;13.52;;;7.10;;
26261;SDS011;13988;52.446;13.280;2024-02-26T10:32:46;11.07;;;7.82;;
26261;SDS011;13988;52.446;13.280;2024-02-26T10:35:13;10.48;;;6.88;;
26261;SDS011;13988;52.446;13.280;2024-02-26T10:37:42;13.25;;;7.80;;
26261;SDS011;13988;52.446;13.280;2024-02-26T10:40:11;11.80;;;6.07;;
26261;SDS011;13988;52.446;13.280;2024-02-26T10:42:38;10.45;;;6.32;;
26261;SDS011;13988;52.446;13.280;2024-02-26T10:45:05;11.15;;;7.13;;
26261;SDS011;13988;52.446;13.280;2024-02-26T10:47:31;10.48;;;6.25;;
26261;SDS011;13988;52.446;13.280;2024-02-26T10:49:58;11.95;;;6.18;;
26261;SDS011;13988;52.446;13.280;2024-02-26T10:52:26;11.27;;;6.38;;
26261;SDS011;13988;52.446;13.280;2024-02-26T10:54:53;9.18;;;5.28;;
26261;SDS011;13988;52.446;13.280;2024-02-26T10:57:21;8.00;;;5.82;;
26261;SDS011;13988;52.446;13.280;2024-02-26T10:59:49;13.57;;;6.38;;
26261;SDS011;13988;52.446;13.280;2024-02-26T11:02:17;7.28;;;3.97;;
26261;SDS011;13988;52.446;13.280;2024-02-26T11:04:43;12.48;;;6.88;;
26261;SDS011;13988;52.446;13.280;2024-02-26T11:07:10;8.77;;;5.72;;
26261;SDS011;13988;52.446;13.280;2024-02-26T11:09:37;10.68;;;5.28;;
26261;SDS011;13988;52.446;13.280;2024-02-26T11:12:08;9.77;;;5.07;;
26261;SDS011;13988;52.446;13.280;2024-02-26T11:14:37;9.60;;;4.57;;
26261;SDS011;13988;52.446;13.280;2024-02-26T11:17:05;9.75;;;5.10;;
26261;SDS011;13988;52.446;13.280;2024-02-26T11:19:32;8.70;;;4.85;;
26261;SDS011;13988;52.446;13.280;2024-02-26T11:22:00;11.02;;;5.25;;
26261;SDS011;13988;52.446;13.280;2024-02-26T11:24:26;9.13;;;5.40;;
26261;SDS011;13988;52.446;13.280;2024-02-26T11:26:54;5.63;;;4.50;;
26261;SDS011;13988;52.446;13.280;2024-02-26T11:29:26;8.35;;;5.00;;
26261;SDS011;13988;52.446;13.280;2024-02-26T11:31:59;9.30;;;4.72;;
26261;SDS011;13988;52.446;13.280;2024-02-26T11:34:25;9.82;;;5.07;;
26261;SDS011;13988;52.446;13.280;2024-02-26T11:36:51;8.13;;;4.70;;
26261;SDS011;13988;52.446;13.280;2024-02-26T11:39:18;11.32;;;5.30;;
26261;SDS011;13988;52.446;13.280;2024-02-26T11:41:44;9.45;;;4.75;;
26261;SDS011;13988;52.446;13.280;2024-02-26T11:44:11;8.60;;;4.90;;
26261;SDS011;13988;52.446;13.280;2024-02-26T11:46:40;9.32;;;5.57;;
26261;SDS011;13988;52.446;13.280;2024-02-26T11:51:55;8.65;;;5.38;;
26261;SDS011;13988;52.446;13.280;2024-02-26T11:59:54;10.55;;;5.45;;
26261;SDS011;13988;52.446;13.280;2024-02-26T12:07:42;4.25;;;3.25;;
26261;SDS011;13988;52.446;13.280;2024-02-26T12:10:20;6.97;;;4.60;;
26261;SDS011;13988;52.446;13.280;2024-02-26T12:12:50;9.27;;;5.30;;
26261;SDS011;13988;52.446;13.280;2024-02-26T12:15:18;8.30;;;5.28;;
26261;SDS011;13988;52.446;13.280;2024-02-26T12:17:48;7.82;;;4.78;;
26261;SDS011;13988;52.446;13.280;2024-02-26T12:20:14;9.25;;;4.82;;
26261;SDS011;13988;52.446;13.280;2024-02-26T12:22:44;9.27;;;5.25;;
26261;SDS011;13988;52.446;13.280;2024-02-26T12:25:14;7.38;;;4.60;;
26261;SDS011;13988;52.446;13.280;2024-02-26T12:27:39;8.45;;;5.15;;
26261;SDS011;13988;52.446;13.280;2024-02-26T12:30:05;6.75;;;3.67;;
26261;SDS011;13988;52.446;13.280;2024-02-26T12:32:32;6.60;;;4.65;;
26261;SDS011;13988;52.446;13.280;2024-02-26T12:34:58;7.18;;;4.50;;
26261;SDS011;13988;52.446;13.280;2024-02-26T12:37:25;7.38;;;4.75;;
26261;SDS011;13988;52.446;13.280;2024-02-26T12:39:52;6.57;;;4.90;;
26261;SDS011;13988;52.446;13.280;2024-02-26T12:42:17;8.93;;;5.03;;
26261;SDS011;13988;52.446;13.280;2024-02-26T12:44:45;10.13;;;5.63;;
26261;SDS011;13988;52.446;13.280;2024-02-26T12:47:11;14.23;;;5.95;;
26261;SDS011;13988;52.446;13.280;2024-02-26T12:49:42;8.35;;;5.35;;
26261;SDS011;13988;52.446;13.280;2024-02-26T12:52:08;8.35;;;5.18;;
26261;SDS011;13988;52.446;13.280;2024-02-26T12:54:35;9.05;;;4.80;;
26261;SDS011;13988;52.446;13.280;2024-02-26T12:57:04;9.23;;;6.22;;
26261;SDS011;13988;52.446;13.280;2024-02-26T12:59:31;7.70;;;5.22;;
26261;SDS011;13988;52.446;13.280;2024-02-26T13:01:58;11.38;;;4.78;;
26261;SDS011;13988;52.446;13.280;2024-02-26T13:04:26;6.90;;;5.03;;
26261;SDS011;13988;52.446;13.280;2024-02-26T13:06:54;6.72;;;5.00;;
26261;SDS011;13988;52.446;13.280;2024-02-26T13:09:19;9.68;;;5.18;;
26261;SDS011;13988;52.446;13.280;2024-02-26T13:11:52;11.15;;;6.00;;
26261;SDS011;13988;52.446;13.280;2024-02-26T13:14:19;12.85;;;6.63;;
26261;SDS011;13988;52.446;13.280;2024-02-26T13:16:54;9.75;;;5.70;;
26261;SDS011;13988;52.446;13.280;2024-02-26T13:19:20;8.85;;;4.78;;
26261;SDS011;13988;52.446;13.280;2024-02-26T13:21:46;10.05;;;4.97;;
26261;SDS011;13988;52.446;13.280;2024-02-26T13:24:15;3.70;;;2.85;;
26261;SDS011;13988;52.446;13.280;2024-02-26T13:26:41;8.25;;;4.97;;
26261;SDS011;13988;52.446;13.280;2024-02-26T13:29:07;8.27;;;4.53;;
26261;SDS011;13988;52.446;13.280;2024-02-26T13:31:38;7.18;;;4.63;;
26261;SDS011;13988;52.446;13.280;2024-02-26T13:34:05;8.00;;;5.43;;
26261;SDS011;13988;52.446;13.280;2024-02-26T13:36:30;7.63;;;4.13;;
26261;SDS011;13988;52.446;13.280;2024-02-26T13:38:56;6.15;;;4.47;;
26261;SDS011;13988;52.446;13.280;2024-02-26T13:41:22;7.53;;;4.35;;
26261;SDS011;13988;52.446;13.280;2024-02-26T13:43:48;10.75;;;4.47;;
26261;SDS011;13988;52.446;13.280;2024-02-26T13:46:14;7.57;;;3.50;;
26261;SDS011;13988;52.446;13.280;2024-02-26T13:48:41;4.57;;;3.03;;
26261;SDS011;13988;52.446;13.280;2024-02-26T13:51:07;5.05;;;3.63;;
26261;SDS011;13988;52.446;13.280;2024-02-26T13:53:33;7.45;;;4.00;;
26261;SDS011;13988;52.446;13.280;2024-02-26T13:55:58;11.75;;;4.18;;
26261;SDS011;13988;52.446;13.280;2024-02-26T13:58:26;8.75;;;3.90;;
26261;SDS011;13988;52.446;13.280;2024-02-26T14:00:52;7.40;;;3.30;;
26261;SDS011;13988;52.446;13.280;2024-02-26T14:03:19;6.70;;;3.45;;
26261;SDS011;13988;52.446;13.280;2024-02-26T14:05:45;6.28;;;3.42;;
26261;SDS011;13988;52.446;13.280;2024-02-26T14:08:11;10.50;;;3.40;;
26261;SDS011;13988;52.446;13.280;2024-02-26T14:10:37;3.08;;;2.78;;
26261;SDS011;13988;52.446;13.280;2024-02-26T14:13:03;5.40;;;3.28;;
26261;SDS011;13988;52.446;13.280;2024-02-26T14:15:29;5.07;;;2.92;;
26261;SDS011;13988;52.446;13.280;2024-02-26T14:17:55;6.20;;;3.20;;
26261;SDS011;13988;52.446;13.280;2024-02-26T14:20:22;3.67;;;2.60;;
26261;SDS011;13988;52.446;13.280;2024-02-26T14:22:51;6.32;;;2.90;;
26261;SDS011;13988;52.446;13.280;2024-02-26T14:25:18;10.35;;;3.55;;
26261;SDS011;13988;52.446;13.280;2024-02-26T14:27:45;4.60;;;2.70;;
26261;SDS011;13988;52.446;13.280;2024-02-26T14:30:11;8.23;;;3.38;;
26261;SDS011;13988;52.446;13.280;2024-02-26T14:32:37;6.47;;;3.58;;
26261;SDS011;13988;52.446;13.280;2024-02-26T14:35:05;8.75;;;3.80;;
26261;SDS011;13988;52.446;13.280;2024-02-26T14:37:32;7.13;;;3.65;;